Time;durP1;ratioP1;P1;durP2;ratioP2;P2;SDS_P1;SDS_P2;PMS_P1;PMS_P2;Temp;Humidity;BMP_temperature;BMP_pressure;BME280_temperature;BME280_humidity;BME280_pressure;Samples;Min_cycle;Max_cycle;Signal;HPM_P1;HPM_P2
2022/06/30 00:01:06;;;;;;;4.95;3.53;;;;;;;23.33;62.52;100119.66;4128005;28;20049;-70
2022/06/30 00:03:10;;;;;;;7.40;4.07;;;;;;;23.29;62.30;100120.72;4135390;28;20128;-70
2022/06/30 00:05:12;;;;;;;6.40;3.50;;;;;;;23.27;62.40;100125.22;4146848;28;20565;-69
2022/06/30 00:07:15;;;;;;;6.63;3.67;;;;;;;23.27;62.47;100127.88;4148353;28;20038;-70
2022/06/30 00:09:19;;;;;;;4.80;3.20;;;;;;;23.27;62.45;100127.88;4163418;28;20041;-70
2022/06/30 00:11:22;;;;;;;3.83;3.38;;;;;;;23.25;62.09;100135.03;4130958;28;20069;-70
2022/06/30 00:13:25;;;;;;;5.30;3.70;;;;;;;23.25;61.76;100129.72;4147684;28;20448;-70
2022/06/30 00:15:28;;;;;;;7.38;3.90;;;;;;;23.20;61.82;100129.06;4145158;28;20501;-70
2022/06/30 00:17:31;;;;;;;7.13;3.80;;;;;;;23.18;61.82;100129.13;4149187;28;20042;-70
2022/06/30 00:19:35;;;;;;;9.23;4.30;;;;;;;23.17;61.91;100122.13;4147959;28;20037;-71
2022/06/30 00:21:38;;;;;;;6.28;3.65;;;;;;;23.12;62.30;100126.75;4129456;28;20034;-70
2022/06/30 00:23:41;;;;;;;4.97;3.60;;;;;;;23.08;62.58;100126.91;4144106;28;20066;-71
2022/06/30 00:25:45;;;;;;;9.45;3.90;;;;;;;23.10;62.91;100125.06;4148105;28;20462;-70
2022/06/30 00:27:48;;;;;;;4.82;3.05;;;;;;;23.04;63.29;100123.53;4144180;28;20046;-71
2022/06/30 00:29:51;;;;;;;6.78;4.18;;;;;;;23.04;63.33;100122.66;4129919;28;20065;-71
2022/06/30 00:31:54;;;;;;;6.00;3.75;;;;;;;23.01;63.18;100124.53;4139449;28;20137;-70
2022/06/30 00:33:57;;;;;;;6.53;4.00;;;;;;;22.93;63.60;100124.00;4147418;28;20034;-70
2022/06/30 00:36:00;;;;;;;6.15;3.63;;;;;;;22.90;63.74;100125.94;4130494;28;20048;-70
2022/06/30 00:38:04;;;;;;;4.90;3.33;;;;;;;22.87;63.77;100126.03;4142496;28;20045;-70
2022/06/30 00:40:07;;;;;;;7.00;3.70;;;;;;;22.83;63.94;100122.66;4147499;28;20137;-70
2022/06/30 00:42:12;;;;;;;7.03;4.43;;;;;;;22.79;64.16;100126.34;4147059;28;20441;-70
2022/06/30 00:44:15;;;;;;;8.95;4.00;;;;;;;22.79;64.36;100121.94;4146211;28;20511;-70
2022/06/30 00:46:19;;;;;;;9.63;4.32;;;;;;;22.76;64.60;100118.53;4122627;28;20046;-69
2022/06/30 00:48:22;;;;;;;4.20;3.40;;;;;;;22.73;64.92;100118.69;4130731;28;20050;-70
2022/06/30 00:50:25;;;;;;;7.05;3.88;;;;;;;22.71;65.17;100120.53;4147525;28;20044;-70
2022/06/30 00:52:35;;;;;;;4.82;3.90;;;;;;;22.71;65.24;100121.38;4146186;28;20041;-69
2022/06/30 00:54:40;;;;;;;8.15;4.20;;;;;;;22.66;65.46;100111.00;4147428;28;20136;-70
2022/06/30 00:56:46;;;;;;;7.85;4.15;;;;;;;22.60;65.64;100111.22;4148374;28;20038;-70
2022/06/30 00:58:54;;;;;;;6.45;4.10;;;;;;;22.61;65.43;100117.41;4146573;28;20041;-70
2022/06/30 01:00:58;;;;;;;5.97;4.28;;;;;;;22.59;65.66;100112.16;4139696;28;20038;-70
2022/06/30 01:03:02;;;;;;;5.32;4.10;;;;;;;22.60;65.68;100113.00;4145460;28;20037;-70
2022/06/30 01:05:06;;;;;;;5.90;3.75;;;;;;;22.58;65.49;100110.44;4140201;28;20125;-70
2022/06/30 01:07:10;;;;;;;;;;;;;;;22.38;66.03;100111.25;4146898;28;20054;-70
2022/06/30 01:12:41;;;;;;;9.52;4.25;;;;;;;22.43;65.96;100113.72;4146166;28;20279;-70
2022/06/30 01:14:00;;;;;;;7.57;4.68;;;;;;;22.41;66.06;100103.16;4141209;28;20045;-70
2022/06/30 01:16:04;;;;;;;6.22;3.80;;;;;;;22.40;66.23;100100.59;4128920;28;20401;-69
2022/06/30 01:18:07;;;;;;;7.22;4.45;;;;;;;22.41;65.89;100099.66;4147365;28;20058;-69
2022/06/30 01:20:11;;;;;;;7.45;4.57;;;;;;;22.39;65.81;100107.69;4147418;28;20045;-69
2022/06/30 01:22:15;;;;;;;8.73;5.00;;;;;;;22.36;65.61;100104.31;4143741;28;20042;-69
2022/06/30 01:24:18;;;;;;;11.30;4.43;;;;;;;22.30;65.50;100111.53;4141068;28;20034;-70
2022/06/30 01:26:23;;;;;;;9.43;4.47;;;;;;;22.33;64.92;100099.09;4145960;28;20402;-69
2022/06/30 01:28:26;;;;;;;11.18;4.97;;;;;;;22.31;64.77;100113.25;4144854;28;20042;-69
2022/06/30 01:30:30;;;;;;;6.72;4.15;;;;;;;22.29;65.02;100104.50;4135207;28;20040;-69
2022/06/30 01:32:32;;;;;;;9.23;4.38;;;;;;;22.30;64.47;100106.22;4135675;28;20046;-69
2022/06/30 01:34:35;;;;;;;5.55;3.53;;;;;;;22.26;64.36;100109.91;4143273;28;20509;-70
2022/06/30 01:36:38;;;;;;;11.43;4.28;;;;;;;22.27;64.32;100108.16;4146901;28;20030;-70
2022/06/30 01:38:42;;;;;;;8.48;4.50;;;;;;;22.28;64.98;100115.16;4146151;28;20045;-70
2022/06/30 01:40:45;;;;;;;4.43;3.72;;;;;;;22.22;65.52;100112.75;4143608;28;20120;-70
2022/06/30 01:42:49;;;;;;;6.65;3.70;;;;;;;22.14;65.87;100111.28;4126723;28;20438;-70
2022/06/30 01:44:52;;;;;;;6.88;4.32;;;;;;;22.17;65.66;100114.75;4144649;28;20046;-70
2022/06/30 01:46:56;;;;;;;6.05;4.03;;;;;;;22.19;65.45;100108.44;4143884;28;20124;-70
2022/06/30 01:48:59;;;;;;;8.52;4.18;;;;;;;22.12;65.77;100112.25;4146028;28;20042;-70
2022/06/30 01:51:01;;;;;;;6.07;4.30;;;;;;;22.10;65.86;100124.69;4146704;28;20133;-70
2022/06/30 01:53:04;;;;;;;5.22;3.70;;;;;;;22.07;65.97;100119.53;4144897;28;20038;-69
2022/06/30 01:55:09;;;;;;;8.23;4.20;;;;;;;22.05;65.92;100116.94;4140481;28;20040;-69
2022/06/30 01:57:14;;;;;;;8.80;4.30;;;;;;;21.99;65.73;100117.19;4141236;28;20428;-69
2022/06/30 01:59:17;;;;;;;6.50;3.88;;;;;;;21.96;65.69;100115.50;4129515;28;20042;-70
2022/06/30 02:01:20;;;;;;;6.93;4.20;;;;;;;21.96;65.58;100122.56;4127468;28;20066;-69
2022/06/30 02:03:23;;;;;;;7.07;4.28;;;;;;;21.95;65.57;100120.88;4143655;28;20797;-70
2022/06/30 02:05:26;;;;;;;8.40;4.50;;;;;;;21.91;65.59;100119.25;4140637;28;20041;-69
2022/06/30 02:07:29;;;;;;;9.55;4.20;;;;;;;21.89;65.66;100115.78;4140464;28;20129;-69
2022/06/30 02:09:32;;;;;;;7.57;4.22;;;;;;;21.91;65.68;100120.09;4146978;28;20044;-70
2022/06/30 02:11:37;;;;;;;7.35;4.85;;;;;;;21.91;65.75;100109.50;4142430;28;20052;-69
2022/06/30 02:13:40;;;;;;;6.57;3.75;;;;;;;21.88;65.72;100108.78;4136081;28;20048;-70
2022/06/30 02:15:43;;;;;;;5.63;4.13;;;;;;;21.84;66.02;100105.38;4142713;28;20501;-70
2022/06/30 02:17:47;;;;;;;8.65;3.78;;;;;;;21.83;66.06;100106.31;4145286;28;20125;-70
2022/06/30 02:19:50;;;;;;;5.32;3.97;;;;;;;21.81;66.29;100115.22;4145636;28;20496;-70
2022/06/30 02:21:53;;;;;;;6.72;3.85;;;;;;;21.80;66.25;100106.44;4141782;28;20113;-69
2022/06/30 02:23:56;;;;;;;8.90;4.40;;;;;;;21.76;66.13;100110.97;4145745;28;20045;-70
2022/06/30 02:25:59;;;;;;;6.32;4.18;;;;;;;21.71;66.39;100112.06;4144248;28;20045;-70
2022/06/30 02:28:05;;;;;;;8.60;4.63;;;;;;;21.67;66.89;100105.16;4144088;28;20050;-69
2022/06/30 02:30:09;;;;;;;6.57;5.10;;;;;;;21.57;66.74;100100.22;4144870;28;20047;-70
2022/06/30 02:32:14;;;;;;;7.97;4.93;;;;;;;21.57;67.11;100100.22;4145318;28;20037;-69
2022/06/30 02:34:17;;;;;;;9.48;4.25;;;;;;;21.53;67.12;100109.19;4138743;28;20046;-69
2022/06/30 02:36:21;;;;;;;14.18;4.60;;;;;;;21.56;67.09;100101.13;4144172;28;20483;-69
2022/06/30 02:38:23;;;;;;;7.20;3.92;;;;;;;21.52;67.20;100098.66;4147305;28;20137;-70
2022/06/30 02:40:26;;;;;;;10.15;4.50;;;;;;;21.52;67.20;100096.88;4146193;28;20041;-70
2022/06/30 02:42:33;;;;;;;8.30;4.53;;;;;;;21.51;67.39;100092.50;4112859;28;20039;-70
2022/06/30 02:44:37;;;;;;;5.82;4.32;;;;;;;21.54;67.44;100095.03;4126713;28;20046;-70
2022/06/30 02:46:40;;;;;;;5.75;4.30;;;;;;;21.51;67.36;100104.84;4130268;28;20056;-69
2022/06/30 02:48:43;;;;;;;6.53;3.97;;;;;;;21.50;67.36;100103.97;4148507;28;20524;-69
2022/06/30 02:50:47;;;;;;;6.75;4.75;;;;;;;21.48;67.53;100105.81;4132450;28;20133;-69
2022/06/30 02:52:50;;;;;;;6.18;4.35;;;;;;;21.51;67.34;100116.31;4148783;28;20088;-70
2022/06/30 02:54:53;;;;;;;6.63;4.40;;;;;;;21.52;67.29;100115.38;4148804;28;20498;-70
2022/06/30 02:56:56;;;;;;;9.80;4.57;;;;;;;21.49;67.44;100115.47;4143557;28;20042;-69
2022/06/30 02:58:59;;;;;;;10.93;5.20;;;;;;;21.51;67.25;100118.97;4148895;28;20038;-70
2022/06/30 03:01:03;;;;;;;6.97;4.43;;;;;;;21.49;67.07;100107.53;4130865;28;20133;-69
2022/06/30 03:03:06;;;;;;;8.07;4.60;;;;;;;21.41;67.21;100112.25;4127945;28;20035;-69
2022/06/30 03:05:10;;;;;;;8.48;4.90;;;;;;;21.40;67.13;100110.53;4149536;28;20050;-69
2022/06/30 03:07:13;;;;;;;8.20;5.03;;;;;;;21.33;67.36;100109.00;4149159;28;20056;-70
2022/06/30 03:09:15;;;;;;;6.38;5.00;;;;;;;21.29;67.58;100108.28;4123493;28;20038;-69
2022/06/30 03:11:18;;;;;;;7.07;4.20;;;;;;;21.28;67.46;100099.47;4147451;28;20516;-70
2022/06/30 03:13:41;;;;;;;9.50;4.68;;;;;;;21.24;67.65;100102.28;4148365;28;20038;-70
2022/06/30 03:15:44;;;;;;;6.05;4.63;;;;;;;21.23;67.57;100106.72;4129761;28;20078;-70
2022/06/30 03:17:48;;;;;;;7.95;4.43;;;;;;;21.22;67.84;100112.06;4153451;28;20038;-70
2022/06/30 03:19:51;;;;;;;9.05;4.72;;;;;;;21.17;67.93;100112.19;4141437;28;20036;-70
2022/06/30 03:21:54;;;;;;;6.72;4.00;;;;;;;21.11;68.21;100109.78;4149401;28;20076;-69
2022/06/30 03:23:57;;;;;;;5.07;4.03;;;;;;;21.11;68.16;100112.41;4130956;28;20125;-69
2022/06/30 03:26:00;;;;;;;7.22;4.90;;;;;;;21.08;68.41;100109.88;4133558;28;20038;-69
2022/06/30 03:28:04;;;;;;;12.07;5.68;;;;;;;21.08;68.35;100110.75;4148679;28;20061;-71
2022/06/30 03:30:12;;;;;;;6.63;4.43;;;;;;;21.05;68.58;100105.56;4142762;28;20582;-70
2022/06/30 03:32:15;;;;;;;7.90;4.50;;;;;;;21.06;68.51;100119.66;4148657;28;20050;-70
2022/06/30 03:34:19;;;;;;;6.82;4.50;;;;;;;21.12;68.39;100115.94;4144089;28;20049;-70
2022/06/30 03:36:22;;;;;;;7.03;4.35;;;;;;;21.08;68.57;100108.13;4112731;28;20047;-70
2022/06/30 03:38:25;;;;;;;8.65;4.13;;;;;;;21.08;68.43;100112.53;4146157;28;20045;-69
2022/06/30 03:40:28;;;;;;;7.85;4.88;;;;;;;21.08;68.28;100108.13;4145336;28;20049;-70
2022/06/30 03:42:33;;;;;;;6.88;4.28;;;;;;;21.06;68.43;100114.38;4129157;28;20052;-70
2022/06/30 03:44:36;;;;;;;10.13;5.50;;;;;;;21.05;68.59;100112.63;4145790;28;20045;-70
2022/06/30 03:46:39;;;;;;;6.55;4.57;;;;;;;21.02;68.59;100112.75;4130674;28;20047;-70
2022/06/30 03:48:42;;;;;;;5.47;4.00;;;;;;;21.01;68.77;100111.91;4137996;28;20831;-69
2022/06/30 03:50:46;;;;;;;8.80;4.75;;;;;;;21.02;68.41;100118.03;4135368;28;20404;-69
2022/06/30 03:52:49;;;;;;;;;;;;;;;20.86;68.78;100117.69;4146335;28;20038;-70
2022/06/30 03:54:52;;;;;;;5.70;4.28;;;;;;;20.95;68.72;100117.38;4144378;28;19927;-69
2022/06/30 03:56:54;;;;;;;8.93;4.32;;;;;;;21.02;68.52;100123.31;4144937;28;20494;-69
2022/06/30 03:58:57;;;;;;;11.05;4.95;;;;;;;21.02;68.58;100121.53;4149264;28;20477;-70
2022/06/30 04:01:00;;;;;;;8.57;5.00;;;;;;;21.04;68.37;100127.63;4129105;28;20433;-69
2022/06/30 04:03:04;;;;;;;8.27;4.28;;;;;;;21.05;68.60;100126.69;4163068;28;20111;-69
2022/06/30 04:05:08;;;;;;;8.65;4.53;;;;;;;21.05;68.95;100131.13;4147288;28;20096;-69
2022/06/30 04:07:12;;;;;;;4.82;3.90;;;;;;;21.06;68.99;100128.44;4145402;28;20085;-69
2022/06/30 04:09:15;;;;;;;7.47;4.25;;;;;;;21.05;68.98;100129.34;4148260;28;20048;-69
2022/06/30 04:11:18;;;;;;;7.88;3.88;;;;;;;21.10;68.73;100127.41;4130607;28;20053;-69
2022/06/30 04:13:21;;;;;;;6.10;4.90;;;;;;;21.12;68.74;100119.44;4146736;28;20038;-69
2022/06/30 04:15:24;;;;;;;6.43;4.35;;;;;;;21.16;68.63;100122.81;4113369;28;20126;-70
2022/06/30 04:17:27;;;;;;;5.75;3.90;;;;;;;21.21;68.44;100129.69;4144739;28;20519;-69
2022/06/30 04:19:30;;;;;;;4.82;3.40;;;;;;;21.28;69.39;100117.97;4142636;28;20049;-68
2022/06/30 04:21:33;;;;;;;3.80;3.40;;;;;;;21.57;69.55;100125.81;4143138;28;20041;-68
2022/06/30 04:23:37;;;;;;;5.57;3.38;;;;;;;21.85;68.46;100115.06;4129627;28;20042;-69
2022/06/30 04:25:41;;;;;;;7.78;4.22;;;;;;;22.03;67.56;100112.63;4154327;28;20044;-68
2022/06/30 04:27:45;;;;;;;6.75;3.30;;;;;;;22.16;66.78;100113.00;4146198;28;20137;-68
2022/06/30 04:29:48;;;;;;;6.20;4.05;;;;;;;22.21;66.33;100108.38;4146833;28;20061;-68
2022/06/30 04:34:12;;;;;;;6.93;3.88;;;;;;;22.24;65.94;100109.13;4141977;28;20128;-68
2022/06/30 04:36:15;;;;;;;6.78;3.95;;;;;;;22.26;66.03;100115.22;4143871;28;20064;-69
2022/06/30 04:38:18;;;;;;;5.57;3.75;;;;;;;22.30;65.94;100113.31;4154393;28;20451;-69
2022/06/30 04:42:43;;;;;;;4.63;3.65;;;;;;;22.45;65.66;100107.41;4126473;28;20490;-69
2022/06/30 04:44:45;;;;;;;5.00;3.63;;;;;;;22.50;65.33;100112.53;4110184;28;20386;-68
2022/06/30 04:46:48;;;;;;;5.63;3.97;;;;;;;22.53;65.21;100111.53;4125418;28;20042;-69
2022/06/30 04:48:52;;;;;;;5.05;4.07;;;;;;;22.55;65.14;100110.56;4125758;28;20050;-69
2022/06/30 04:50:55;;;;;;;6.87;3.53;;;;;;;22.58;64.79;100115.72;4141368;28;20516;-69
2022/06/30 04:52:58;;;;;;;10.02;3.60;;;;;;;22.64;64.56;100115.47;4136124;28;20097;-69
2022/06/30 04:55:01;;;;;;;6.80;3.67;;;;;;;22.67;64.57;100109.19;4140349;28;20045;-69
2022/06/30 04:57:07;;;;;;;7.43;3.77;;;;;;;22.68;64.75;100110.91;4132742;28;20050;-69
2022/06/30 04:59:10;;;;;;;6.72;3.83;;;;;;;22.70;64.77;100114.34;4128614;28;20309;-69
2022/06/30 05:01:13;;;;;;;5.78;3.70;;;;;;;22.73;64.78;100114.22;4127276;28;20038;-69
2022/06/30 05:03:16;;;;;;;5.47;3.95;;;;;;;22.74;64.67;100102.72;4145196;28;20128;-69
2022/06/30 05:05:19;;;;;;;5.07;3.78;;;;;;;22.76;64.63;100103.50;4148245;28;20038;-69
2022/06/30 05:07:22;;;;;;;5.13;3.42;;;;;;;22.80;64.84;100098.94;4156359;28;20068;-69
2022/06/30 05:09:25;;;;;;;7.63;3.90;;;;;;;22.81;64.63;100100.69;4119730;28;20093;-69
2022/06/30 05:11:28;;;;;;;4.05;3.25;;;;;;;22.82;64.55;100105.03;4144226;28;20092;-69
2022/06/30 05:13:32;;;;;;;5.55;3.40;;;;;;;22.81;64.43;100104.19;4131874;28;20125;-69
2022/06/30 05:15:35;;;;;;;;;;;;;;;22.76;64.26;100103.50;4154887;28;20406;-69
2022/06/30 05:17:38;;;;;;;5.78;3.45;;;;;;;22.77;64.67;100101.72;4147132;28;20335;-69
2022/06/30 05:19:42;;;;;;;9.70;4.00;;;;;;;22.83;64.34;100106.75;4147939;28;20034;-69
2022/06/30 05:21:44;;;;;;;8.27;3.42;;;;;;;22.93;63.68;100115.19;4148654;28;20034;-70
2022/06/30 05:28:25;;;;;;;3.78;3.17;;;;;;;23.08;63.42;100103.06;4148685;28;20034;-70
2022/06/30 05:30:29;;;;;;;7.65;3.95;;;;;;;23.07;63.15;100103.97;4160906;28;20034;-69
2022/06/30 05:32:34;;;;;;;7.30;4.38;;;;;;;23.09;62.96;100100.34;4149613;28;20061;-71
2022/06/30 05:34:37;;;;;;;5.18;3.65;;;;;;;23.12;62.85;100104.69;4117325;28;20043;-70
2022/06/30 05:36:40;;;;;;;8.60;3.55;;;;;;;23.17;62.68;100097.38;4165723;28;20045;-69
2022/06/30 05:39:09;;;;;;;6.22;3.67;;;;;;;23.21;62.45;100093.66;4144714;28;20044;-69
2022/06/30 05:41:12;;;;;;;6.57;3.92;;;;;;;23.23;62.54;100090.94;4157918;28;20534;-70
2022/06/30 05:43:20;;;;;;;9.38;4.30;;;;;;;23.29;62.17;100095.97;4149436;28;20052;-69
2022/06/30 05:45:23;;;;;;;6.25;3.90;;;;;;;23.30;62.23;100098.53;4146612;28;20049;-70
2022/06/30 05:47:27;;;;;;;6.47;4.47;;;;;;;23.35;62.14;100093.91;4162721;28;20567;-70
2022/06/30 05:49:30;;;;;;;6.78;3.45;;;;;;;23.31;62.08;100100.28;4137705;28;20044;-70
2022/06/30 05:51:33;;;;;;;5.32;3.00;;;;;;;23.34;62.10;100089.53;4150267;28;20428;-70
2022/06/30 05:53:36;;;;;;;10.95;4.38;;;;;;;23.43;60.87;100087.41;4132107;28;20088;-70
2022/06/30 05:55:39;;;;;;;6.32;3.50;;;;;;;23.42;61.56;100090.97;4152646;28;20040;-70
2022/06/30 05:57:50;;;;;;;6.67;3.50;;;;;;;23.41;61.40;100094.56;4144508;28;20038;-70
2022/06/30 05:59:53;;;;;;;6.18;4.13;;;;;;;23.47;61.69;100092.50;4149267;28;20307;-75
2022/06/30 06:01:56;;;;;;;8.27;4.35;;;;;;;23.53;60.80;100088.72;4149853;28;20124;-75
2022/06/30 06:04:00;;;;;;;6.68;4.20;;;;;;;23.59;59.82;100083.09;4153011;28;20128;-75
2022/06/30 06:06:04;;;;;;;5.28;3.33;;;;;;;23.44;60.86;100074.06;4146998;28;20591;-74
2022/06/30 06:08:07;;;;;;;5.72;3.28;;;;;;;23.37;60.85;100082.38;4158643;28;20047;-74
2022/06/30 06:10:13;;;;;;;6.72;3.58;;;;;;;23.38;60.49;100084.97;4129737;28;20101;-75
2022/06/30 06:12:16;;;;;;;6.45;3.63;;;;;;;23.35;60.70;100085.97;4138515;28;20038;-74
2022/06/30 06:14:19;;;;;;;7.25;4.10;;;;;;;23.38;60.83;100081.44;4129744;28;20523;-74
2022/06/30 06:16:23;;;;;;;7.40;3.35;;;;;;;23.38;61.46;100084.09;4150424;28;20058;-74
2022/06/30 06:18:26;;;;;;;8.05;3.05;;;;;;;23.38;60.94;100086.72;4133496;28;20046;-74
2022/06/30 06:20:30;;;;;;;8.80;3.40;;;;;;;23.38;60.50;100087.63;4149798;28;20050;-74
2022/06/30 06:22:33;;;;;;;5.15;3.47;;;;;;;23.43;60.95;100092.72;4150464;28;20048;-74
2022/06/30 06:24:36;;;;;;;5.53;3.50;;;;;;;23.51;60.78;100086.13;4133359;28;20382;-74
2022/06/30 06:26:39;;;;;;;7.30;3.38;;;;;;;23.51;61.08;100080.81;4150893;28;20413;-74
2022/06/30 06:31:02;;;;;;;5.57;3.53;;;;;;;23.64;60.61;100082.88;4149522;28;20042;-74
2022/06/30 06:33:06;;;;;;;5.95;3.70;;;;;;;23.64;60.68;100089.09;4150021;28;20512;-74
2022/06/30 06:35:09;;;;;;;3.97;3.20;;;;;;;23.73;60.50;100093.09;4150616;28;20507;-74
2022/06/30 06:38:09;;;;;;;6.18;3.42;;;;;;;23.79;60.42;100097.28;4147609;28;20476;-74
2022/06/30 06:40:14;;;;;;;6.47;4.00;;;;;;;23.79;59.86;100100.78;4148485;28;20057;-74
2022/06/30 06:42:17;;;;;;;5.90;3.28;;;;;;;23.80;59.74;100101.63;4145418;28;20052;-74
2022/06/30 06:44:22;;;;;;;7.07;3.38;;;;;;;23.83;59.71;100101.47;4152017;28;20107;-74
2022/06/30 06:46:27;;;;;;;6.43;3.40;;;;;;;23.82;59.30;100100.63;4151600;28;20508;-74
2022/06/30 06:48:31;;;;;;;5.55;3.00;;;;;;;23.89;59.82;100101.25;4147991;28;20483;-74
2022/06/30 06:50:35;;;;;;;9.65;3.88;;;;;;;23.85;59.09;100105.78;4145149;28;20049;-74
2022/06/30 06:52:38;;;;;;;5.47;3.40;;;;;;;23.84;59.41;100098.75;4148290;28;20088;-71
2022/06/30 06:54:41;;;;;;;6.55;3.20;;;;;;;23.92;59.61;100102.88;4133554;28;20035;-72
2022/06/30 06:56:46;;;;;;;5.53;3.40;;;;;;;24.00;59.52;100103.38;4145532;28;20041;-72
2022/06/30 06:58:49;;;;;;;;;;;;;;;23.86;59.22;100094.28;4127213;28;20425;-72
2022/06/30 07:00:53;;;;;;;7.70;3.95;;;;;;;23.95;59.58;100100.09;4148529;28;19929;-72
2022/06/30 07:02:56;;;;;;;;;;;;;;;23.88;59.24;100102.16;4131512;28;20086;-71
2022/06/30 07:04:59;;;;;;;5.30;3.45;;;;;;;24.01;58.96;100105.97;4132298;28;20421;-71
2022/06/30 07:07:08;;;;;;;8.43;3.22;;;;;;;24.12;58.92;100108.09;4154367;28;20075;-72
2022/06/30 07:09:11;;;;;;;7.15;3.13;;;;;;;24.26;58.84;100102.13;4141155;28;20046;-71
2022/06/30 07:11:14;;;;;;;5.82;3.05;;;;;;;24.37;58.44;100106.91;4153859;28;20037;-70
2022/06/30 07:13:18;;;;;;;5.00;3.30;;;;;;;24.45;57.45;100098.59;4151484;28;20062;-67
2022/06/30 07:15:22;;;;;;;4.22;2.67;;;;;;;24.44;56.66;100100.34;4148382;28;20128;-67
2022/06/30 07:17:50;;;;;;;6.07;3.08;;;;;;;24.42;56.44;100099.59;4146210;28;20037;-67
2022/06/30 07:19:54;;;;;;;4.55;3.00;;;;;;;24.40;56.88;100099.66;4144922;28;20133;-67
2022/06/30 07:21:57;;;;;;;7.70;3.05;;;;;;;24.43;56.45;100101.31;4144526;28;20037;-67
2022/06/30 07:24:00;;;;;;;5.95;2.85;;;;;;;24.45;56.14;100104.75;4148709;28;20045;-67
2022/06/30 07:26:03;;;;;;;6.53;3.22;;;;;;;24.50;55.78;100104.50;4145987;28;20082;-67
2022/06/30 07:28:06;;;;;;;5.60;3.45;;;;;;;24.57;55.74;100103.28;4148316;28;20450;-67
2022/06/30 07:30:12;;;;;;;4.38;3.03;;;;;;;24.61;55.60;100109.34;4115630;28;20058;-67
2022/06/30 07:32:15;;;;;;;6.32;3.13;;;;;;;24.58;55.33;100105.00;4142661;28;20046;-67
2022/06/30 07:34:18;;;;;;;4.35;2.92;;;;;;;24.55;55.60;100106.00;4125507;28;20077;-68
2022/06/30 07:36:21;;;;;;;5.47;3.15;;;;;;;24.57;55.60;100098.84;4152057;28;20033;-67
2022/06/30 07:38:24;;;;;;;5.10;3.40;;;;;;;24.66;55.99;100102.00;4153091;28;20077;-67
2022/06/30 07:40:27;;;;;;;4.65;2.80;;;;;;;24.67;55.68;100104.56;4150261;28;20041;-67
2022/06/30 07:42:30;;;;;;;8.40;3.15;;;;;;;24.74;55.37;100105.97;4145305;28;20041;-67
2022/06/30 07:44:33;;;;;;;3.58;2.63;;;;;;;24.81;55.46;100100.34;4129532;28;20069;-68
2022/06/30 07:46:37;;;;;;;8.77;3.20;;;;;;;24.88;55.87;100104.41;4149802;28;20405;-67
2022/06/30 07:48:41;;;;;;;6.28;3.45;;;;;;;25.05;54.78;100096.44;4127304;28;20042;-67
2022/06/30 07:50:44;;;;;;;7.75;3.63;;;;;;;25.29;53.50;100101.44;4143782;28;20040;-67
2022/06/30 07:52:47;;;;;;;3.97;2.70;;;;;;;25.25;53.82;100102.53;4142980;28;20062;-67
2022/06/30 07:54:51;;;;;;;4.78;2.97;;;;;;;25.21;54.49;100101.81;4127465;28;20089;-68
2022/06/30 07:56:54;;;;;;;5.93;2.67;;;;;;;25.26;54.16;100101.56;4148956;28;20137;-67
2022/06/30 07:59:17;;;;;;;7.15;3.25;;;;;;;25.30;54.64;100102.28;4146120;28;20057;-67
2022/06/30 08:01:20;;;;;;;6.28;2.90;;;;;;;25.30;54.46;100092.47;4131389;28;20050;-67
2022/06/30 08:03:24;;;;;;;6.05;3.15;;;;;;;25.39;54.31;100096.47;4149937;28;20038;-67
2022/06/30 08:05:27;;;;;;;6.80;4.15;;;;;;;25.53;53.35;100085.97;4131201;28;20051;-68
2022/06/30 08:07:30;;;;;;;6.45;3.40;;;;;;;25.48;54.16;100095.13;4150838;28;20048;-67
2022/06/30 08:09:33;;;;;;;5.53;2.75;;;;;;;25.55;54.11;100086.75;4131121;28;20042;-67
2022/06/30 08:11:38;;;;;;;6.33;2.73;;;;;;;25.61;53.30;100085.53;4149505;28;20461;-67
2022/06/30 08:13:41;;;;;;;5.40;2.63;;;;;;;25.69;53.14;100082.47;4147168;28;20042;-67
2022/06/30 08:15:44;;;;;;;4.63;2.55;;;;;;;25.73;53.30;100081.34;4144728;28;20065;-67
2022/06/30 08:17:47;;;;;;;5.25;3.10;;;;;;;25.79;51.80;100083.69;4160345;28;20124;-67
2022/06/30 08:19:51;;;;;;;7.80;2.80;;;;;;;25.86;52.47;100090.38;4150395;28;20121;-67
2022/06/30 08:21:54;;;;;;;;;;;;;;;25.73;52.22;100084.88;4144326;28;20523;-67
2022/06/30 08:23:57;;;;;;;4.55;2.72;;;;;;;25.87;52.28;100093.91;4129981;28;20025;-67
2022/06/30 08:26:00;;;;;;;5.30;2.88;;;;;;;25.94;52.63;100080.16;4150032;28;20643;-67
2022/06/30 08:28:05;;;;;;;4.05;2.53;;;;;;;26.02;52.51;100076.22;4145097;28;20073;-67
2022/06/30 08:30:09;;;;;;;5.72;2.90;;;;;;;26.09;52.25;100081.16;4154760;28;20066;-67
2022/06/30 08:32:12;;;;;;;4.68;2.85;;;;;;;26.13;52.22;100082.66;4149982;28;20050;-67
2022/06/30 08:34:15;;;;;;;3.50;2.53;;;;;;;26.16;51.88;100086.97;4130012;28;20044;-67
2022/06/30 08:36:23;;;;;;;3.47;2.50;;;;;;;26.23;51.60;100087.50;4147135;28;20058;-67
2022/06/30 08:38:26;;;;;;;5.68;2.60;;;;;;;26.34;50.78;100082.38;4130134;28;20508;-68
2022/06/30 08:42:51;;;;;;;6.32;2.92;;;;;;;26.39;50.93;100076.81;4147277;28;20519;-67
2022/06/30 08:47:12;;;;;;;7.50;2.83;;;;;;;26.47;51.36;100070.06;4146497;28;19921;-68
2022/06/30 08:49:15;;;;;;;4.10;2.80;;;;;;;26.56;50.68;100068.69;4148438;28;20040;-68
2022/06/30 08:51:21;;;;;;;3.10;2.20;;;;;;;26.65;50.22;100067.28;4145575;28;20129;-68
2022/06/30 08:53:31;;;;;;;6.15;2.70;;;;;;;26.72;50.38;100067.78;4145144;28;20041;-68
2022/06/30 08:55:35;;;;;;;3.75;2.50;;;;;;;26.80;48.97;100061.03;4142710;28;20523;-68
2022/06/30 08:57:41;;;;;;;3.47;2.00;;;;;;;26.86;48.79;100064.31;4152886;28;20053;-68
2022/06/30 08:59:44;;;;;;;6.13;2.83;;;;;;;26.85;49.08;100066.09;4148209;28;20045;-68
2022/06/30 09:01:48;;;;;;;4.13;2.55;;;;;;;26.84;47.38;100059.06;4147188;28;20037;-68
2022/06/30 09:03:51;;;;;;;;;;;;;;;26.81;48.73;100052.09;4146342;28;20064;-67
2022/06/30 09:05:57;;;;;;;4.47;2.03;;;;;;;26.85;47.97;100058.09;4145259;28;19929;-68
2022/06/30 09:08:01;;;;;;;3.85;2.42;;;;;;;26.96;47.78;100055.66;4144960;28;20129;-67
2022/06/30 09:10:25;;;;;;;4.80;2.40;;;;;;;27.02;46.19;100057.09;4150859;28;20037;-67
2022/06/30 09:12:28;;;;;;;4.60;2.08;;;;;;;27.03;45.41;100056.16;4149880;28;20046;-67
2022/06/30 09:14:33;;;;;;;5.78;2.08;;;;;;;27.05;43.81;100048.88;4146695;28;20599;-67
2022/06/30 09:16:37;;;;;;;6.72;2.63;;;;;;;27.36;43.02;100047.00;4154278;28;20041;-68
2022/06/30 09:18:40;;;;;;;5.82;2.10;;;;;;;27.34;45.15;100047.13;4160079;28;20041;-68
2022/06/30 09:20:43;;;;;;;7.72;2.08;;;;;;;27.44;45.49;100052.75;4159136;28;20041;-67
2022/06/30 09:22:46;;;;;;;4.05;2.22;;;;;;;27.45;44.59;100049.13;4152345;28;20046;-67
2022/06/30 09:24:56;;;;;;;4.60;2.58;;;;;;;27.47;44.53;100041.88;4167164;28;20045;-67
2022/06/30 09:27:11;;;;;;;4.15;2.10;;;;;;;27.52;44.02;100041.56;4142815;28;20532;-67
2022/06/30 09:29:14;;;;;;;5.95;2.30;;;;;;;27.68;44.14;100036.09;4150290;28;20045;-67
2022/06/30 09:31:39;;;;;;;4.72;2.05;;;;;;;27.66;44.78;100041.56;4147515;28;20049;-67
2022/06/30 09:33:45;;;;;;;4.93;2.53;;;;;;;27.71;43.97;100043.06;4154704;28;20087;-67
2022/06/30 09:35:48;;;;;;;4.05;1.92;;;;;;;27.78;45.18;100039.91;4146844;28;20034;-67
2022/06/30 09:38:03;;;;;;;3.05;2.05;;;;;;;27.91;45.47;100031.09;4146996;28;20946;-68
2022/06/30 09:40:09;;;;;;;2.95;2.17;;;;;;;28.00;44.76;100027.84;4146557;28;20045;-67
2022/06/30 09:42:12;;;;;;;6.15;2.17;;;;;;;28.03;45.52;100020.47;4148828;28;20030;-67
2022/06/30 09:44:20;;;;;;;4.97;2.38;;;;;;;28.20;43.22;100031.91;4144956;28;20408;-67
2022/06/30 09:46:23;;;;;;;5.15;1.92;;;;;;;28.05;43.84;100023.03;4142194;28;20045;-68
2022/06/30 09:48:28;;;;;;;3.65;2.08;;;;;;;28.17;42.76;100026.75;4153382;28;20038;-67
2022/06/30 09:50:31;;;;;;;6.43;2.47;;;;;;;28.17;42.85;100024.94;4158115;28;20128;-67
2022/06/30 09:52:34;;;;;;;3.67;2.17;;;;;;;28.27;43.45;100026.97;4144154;28;20050;-65
2022/06/30 09:54:38;;;;;;;5.78;2.15;;;;;;;28.39;43.52;100026.16;4145566;28;20038;-67
2022/06/30 09:56:42;;;;;;;5.32;2.50;;;;;;;28.46;42.38;100016.78;4152487;28;20034;-67
2022/06/30 09:58:46;;;;;;;3.20;2.38;;;;;;;28.55;43.47;100017.97;4147274;28;20058;-67